Latest Coastal Weather Observations for Cape Bruny AWS

IDT60701

Issued at 10:25 am EDT Wednesday 26 November 2014 (issued every 10 minutes, with the page automatically refreshed every 10 minutes)

About coastal observations | Map of coastal stations | Coastal observations for TAS | Marine services | Other Formats
Station Details ID: 094198 Name: CAPE BRUNY (CAPE BRUNY) Lat: -43.49 Lon: 147.14 Height: 59.7 m
Data from the previous 72 hours. | See also: Recent months at Cape Bruny AWS
Date/Time
EDT
Temp

°C
Wind Pressure Rain
since 9am
mm
Weather Cloud Vis
km
Sea
Height
m
Swell
Dir
 
Speed
knots
Gust
knots
hPa Trend Height
m
Period
s
Dir
26/10:00am 10.8 W 24 36 1013.2 - 0.6 - - - - - - -
26/09:30am 10.0 W 26 36 1013.0 - 0.4 - - - - - - -
26/09:03am 8.6 WSW 31 41 1012.4 - 0.2 - - - - - - -
26/09:00am 8.4 WSW 31 38 1012.4 - 3.0 Rain - - - - - -
26/08:37am 10.1 W 23 33 1012.2 - 2.2 - - - - - - -
26/08:30am 11.2 W 23 31 1011.8 - 2.2 - - - - - - -
26/08:00am 11.6 W 23 33 1011.0 - 2.2 - - - - - - -
26/07:52am 11.5 W 23 33 1010.9 - 2.2 - - - - - - -
26/07:30am 11.3 W 25 32 1010.6 - 2.2 - - - - - - -
26/07:25am 11.2 W 22 32 1010.5 - 2.2 - - - - - - -
26/07:19am 11.3 W 19 24 1010.4 - 2.2 - - - - - - -
26/07:05am 11.2 W 30 40 1010.0 - 2.2 - - - - - - -
26/07:00am 11.0 W 32 40 1010.0 - 2.2 - - - - - - -
26/06:57am 10.8 W 35 40 1009.9 - 2.2 - - - - - - -
26/06:30am 10.6 W 23 33 1009.8 - 2.2 - - - - - - -
26/06:26am 10.4 W 22 32 1009.9 - 2.2 - - - - - - -
26/06:00am 10.3 W 24 31 1009.4 - 2.2 - - - - - - -
26/05:35am 10.1 W 23 33 1009.1 - 2.2 - - - - - - -
26/05:30am 9.9 W 22 30 1009.1 - 2.2 - - - - - - -
26/05:00am 9.5 W 25 35 1008.7 - 2.2 - - - - - - -
26/04:49am 10.2 W 22 32 1008.7 - 2.2 - - - - - - -
26/04:30am 10.3 W 20 27 1008.3 - 2.2 - - - - - - -
26/04:00am 10.4 W 25 35 1007.9 - 2.2 - - - - - - -
26/03:34am 10.1 W 27 39 1007.8 - 2.2 - - - - - - -
26/03:30am 10.3 W 26 35 1007.9 - 2.2 - - - - - - -
26/03:00am 10.0 W 27 37 1007.8 - 2.2 - - - - - - -
26/02:30am 10.3 W 33 44 1007.1 - 2.2 - - - - - - -
26/02:14am 10.1 W 27 37 1007.4 - 2.2 - - - - - - -
26/02:00am 10.3 W 26 34 1007.6 - 2.2 - - - - - - -
26/01:34am 10.2 W 28 40 1007.2 - 2.2 - - - - - - -
26/01:30am 10.3 W 27 35 1007.4 - 2.2 - - - - - - -
26/01:11am 10.7 W 15 25 1008.0 - 1.6 - - - - - - -
26/01:00am 11.2 WNW 15 19 1007.7 - 0.8 - - - - - - -
26/12:57am 11.2 WNW 15 25 1007.7 - 0.6 - - - - - - -
26/12:30am 12.0 NW 18 25 1007.4 - 0.2 - - - - - - -
26/12:00am 11.7 NW 18 24 1007.9 - 0.2 - - - - - - -
 
Date/Time
EDT
Temp

°C
Wind Pressure Rain
since 9am
mm
Weather Cloud Vis
km
Sea
Height
m
Swell
Dir
 
Speed
knots
Gust
knots
hPa Trend Height
m
Period
s
Dir
25/11:30pm 11.8 NW 20 25 1008.2 - 0.2 - - - - - - -
25/11:00pm 11.9 NW 22 29 1008.5 - 0.2 - - - - - - -
25/10:31pm 11.6 WNW 20 30 1009.0 - 0.2 - - - - - - -
25/10:30pm 11.6 WNW 21 27 1009.0 - 0.2 - - - - - - -
25/10:00pm 11.4 NW 21 28 1009.3 - 0.2 - - - - - - -
25/09:30pm 11.5 NW 19 27 1009.4 - 0.2 - - - - - - -
25/09:00pm 11.4 NW 18 23 1009.3 - 0.2 - - - - - - -
25/08:32pm 11.5 WNW 19 29 1009.3 - 0.2 - - - - - - -
25/08:30pm 11.4 WNW 19 27 1009.2 - 0.2 - - - - - - -
25/08:00pm 11.6 WNW 16 20 1009.3 - 0.2 - - - - - - -
25/07:30pm 11.9 W 17 22 1009.3 - 0.2 - - - - - - -
25/07:19pm 11.7 W 18 28 1009.2 - 0.2 - - - - - - -
25/07:00pm 11.5 WNW 18 24 1009.0 - 0.2 - - - - - - -
25/06:30pm 11.8 W 15 19 1008.9 - 0.2 - - - - - - -
25/06:00pm 12.1 W 21 28 1008.5 - 0.2 - - - - - - -
25/05:32pm 12.1 W 23 33 1008.3 - 0.2 - - - - - - -
25/05:30pm 11.9 W 25 33 1008.4 - 0.2 - - - - - - -
25/05:20pm 12.4 WSW 21 30 1008.3 - 0.2 - - - - - - -
25/05:00pm 13.6 W 17 20 1008.2 - 0.2 - - - - - - -
25/04:30pm 11.5 W 27 37 1007.8 - 0.2 - - - - - - -
25/04:12pm 12.9 W 20 34 1007.7 - 0.2 - - - - - - -
25/04:00pm 12.2 W 24 33 1007.5 - 0.2 - - - - - - -
25/03:30pm 10.9 WSW 23 35 1007.5 - 0.0 - - - - - - -
25/03:00pm 13.0 W 24 36 1006.9 - 0.0 - - - - - - -
25/02:44pm 11.5 W 31 41 1007.0 - 0.0 - - - - - - -
25/02:30pm 11.6 WSW 31 40 1006.8 - 0.0 - - - - - - -
25/02:23pm 12.9 W 27 38 1006.7 - 0.0 - - - - - - -
25/02:00pm 13.3 W 26 34 1006.5 - 0.0 - - - - - - -
25/01:30pm 13.4 W 28 35 1006.4 - 0.0 - - - - - - -
25/01:00pm 12.1 WSW 30 40 1006.2 - 0.0 - - - - - - -
25/12:30pm 14.9 W 24 35 1006.2 - 0.0 - - - - - - -
25/12:01pm 15.0 W 26 36 1006.1 - 0.0 - - - - - - -
25/12:00pm 14.5 W 27 36 1006.1 - 0.0 - - - - - - -
25/11:34am 13.6 W 28 41 1005.6 - 0.0 - - - - - - -
25/11:30am 14.1 W 27 36 1005.6 - 0.0 - - - - - - -
25/11:00am 12.9 WSW 27 32 1005.6 - 0.0 - - - - - - -
25/10:37am 13.5 W 30 40 1005.2 - 0.0 - - - - - - -
25/10:30am 13.4 W 31 38 1005.0 - 0.0 - - - - - - -
25/10:00am 13.2 W 30 41 1005.2 - 0.0 - - - - - - -
25/09:30am 12.0 W 24 36 1005.1 - 0.0 - - - - - - -
25/09:06am 12.2 W 27 37 1004.8 - 0.0 - - - - - - -
25/09:00am 12.1 W 31 38 1004.6 - 11.4 - - - - - - -
25/08:55am 12.4 W 34 44 1004.4 - 11.4 - - - - - - -
25/08:30am 11.9 W 37 44 1003.4 - 11.4 - - - - - - -
25/08:25am 11.8 W 37 41 1003.2 - 11.4 - - - - - - -
25/08:23am 11.9 W 27 41 1003.3 - 11.4 - - - - - - -
25/08:00am 11.6 W 29 38 1003.3 - 11.4 - - - - - - -
25/07:30am 10.8 W 26 36 1002.5 - 11.4 - - - - - - -
25/07:00am 10.6 W 28 38 1002.1 - 11.4 - - - - - - -
25/06:44am 10.0 W 29 41 1001.7 - 11.4 - - - - - - -
25/06:30am 11.1 W 27 36 1001.4 - 11.4 - - - - - - -
25/06:00am 10.5 W 29 36 1000.8 - 11.4 Recent precip. - - - - - -
25/05:30am 10.5 W 30 37 1000.5 - 11.2 - - - - - - -
25/05:00am 11.3 W 27 31 1000.1 - 11.0 - - - - - - -
25/04:30am 10.5 W 27 33 999.7 - 11.0 - - - - - - -
25/04:14am 10.1 W 21 34 999.8 - 11.0 - - - - - - -
25/04:00am 10.0 W 22 27 999.6 - 11.0 - - - - - - -
25/03:32am 10.6 W 23 33 999.6 - 10.2 - - - - - - -
25/03:30am 10.7 W 21 27 999.6 - 9.8 - - - - - - -
25/03:00am 10.8 WNW 14 19 999.7 - 9.8 - - - - - - -
25/02:30am 11.2 WNW 18 26 999.8 - 9.8 - - - - - - -
25/02:00am 11.2 WNW 19 28 999.9 - 9.8 - - - - - - -
25/01:55am 11.4 WNW 17 27 999.9 - 9.8 - - - - - - -
25/01:45am 11.7 NW 15 24 999.9 - 9.8 - - - - - - -
25/01:30am 11.2 NNW 7 11 1000.5 - 9.8 - - - - - - -
25/01:14am 11.7 NW 8 11 1000.2 - 9.8 - - - - - - -
25/01:00am 11.9 WNW 21 33 1000.2 - 9.8 - - - - - - -
25/12:59am 11.9 WNW 21 33 1000.2 - 9.8 - - - - - - -
25/12:42am 11.8 NW 17 27 1000.2 - 9.8 - - - - - - -
25/12:30am 11.6 W 13 16 1000.6 - 9.8 - - - - - - -
25/12:00am 11.7 WNW 16 27 1000.5 - 9.8 - - - - - - -
 
Date/Time
EDT
Temp

°C
Wind Pressure Rain
since 9am
mm
Weather Cloud Vis
km
Sea
Height
m
Swell
Dir
 
Speed
knots
Gust
knots
hPa Trend Height
m
Period
s
Dir
24/11:30pm 11.8 W 21 28 1000.5 - 9.8 - - - - - - -
24/11:16pm 11.6 W 17 23 1000.8 - 9.8 - - - - - - -
24/11:00pm 11.2 NNE 3 13 1001.4 - 9.8 - - - - - - -
24/10:30pm 11.8 WNW 19 26 1001.3 - 9.8 - - - - - - -
24/10:00pm 12.0 WNW 25 35 1001.4 - 9.8 - - - - - - -
24/09:35pm 12.1 WNW 15 26 1001.5 - 9.8 - - - - - - -
24/09:30pm 11.9 WNW 12 17 1001.6 - 9.8 - - - - - - -
24/09:25pm 12.1 NW 13 16 1001.5 - 9.8 - - - - - - -
24/09:00pm 12.2 W 25 31 1001.4 - 9.8 - - - - - - -
24/08:35pm 12.4 WNW 22 32 1001.1 - 9.8 - - - - - - -
24/08:30pm 12.3 WNW 19 28 1001.2 - 9.8 - - - - - - -
24/08:26pm 12.5 WNW 18 28 1001.2 - 9.8 - - - - - - -
24/08:00pm 12.6 WNW 18 26 1001.5 - 9.8 - - - - - - -
24/07:33pm 12.1 WNW 21 31 1001.2 - 9.8 - - - - - - -
24/07:30pm 12.2 W 22 31 1001.2 - 9.8 - - - - - - -
24/07:03pm 12.7 W 26 37 1000.9 - 9.8 - - - - - - -
24/07:00pm 12.7 W 24 29 1001.1 - 9.8 - - - - - - -
24/06:39pm 12.2 W 17 27 1000.9 - 9.6 - - - - - - -
24/06:30pm 12.1 W 11 18 1001.1 - 9.6 - - - - - - -
24/06:00pm 12.6 SW 7 10 1001.5 - 9.6 Rain - - - - - -
24/05:30pm 12.8 SSE 11 14 1001.3 - 2.4 - - - - - - -
24/05:00pm 13.5 NNE 6 11 1001.7 - 1.0 - - - - - - -
24/04:30pm 14.1 NE 6 9 1001.7 - 1.0 - - - - - - -
24/04:00pm 14.0 NE 8 10 1002.0 - 1.0 - - - - - - -
24/03:30pm 14.3 NNE 8 10 1002.6 - 0.8 - - - - - - -
24/03:00pm 15.5 N 7 12 1003.2 - 0.2 - - - - - - -
24/02:30pm 15.6 N 7 12 1003.1 - 0.2 - - - - - - -
24/02:00pm 15.7 N 8 11 1003.4 - 0.2 - - - - - - -
24/01:30pm 16.8 NNE 8 13 1003.8 - 0.2 - - - - - - -
24/01:00pm 16.1 NNE 7 12 1004.0 - 0.2 - - - - - - -
24/12:30pm 14.1 NNE 8 12 1004.7 - 0.2 - - - - - - -
24/12:00pm 14.7 NNE 7 11 1005.1 - 0.0 - - - - - - -
24/11:30am 15.3 NNE 10 14 1006.0 - 0.0 - - - - - - -
24/11:00am 15.2 NE 7 10 1006.5 - 0.0 - - - - - - -
24/10:30am 14.7 NNE 8 10 1006.9 - 0.0 - - - - - - -
24/10:00am 15.0 NNE 7 11 1007.2 - 0.0 - - - - - - -
24/09:30am 14.4 N 10 13 1007.2 - 0.0 - - - - - - -
24/09:00am 14.3 N 10 13 1007.2 - 0.0 - - - - - - -
24/08:30am 13.5 NNE 8 13 1007.2 - 0.0 - - - - - - -
24/08:00am 13.1 N 10 13 1007.4 - 0.0 - - - - - - -
24/07:30am 12.7 N 8 11 1007.8 - 0.0 - - - - - - -
24/07:00am 12.8 N 10 11 1008.1 - 0.0 - - - - - - -
24/06:30am 11.7 N 8 11 1008.4 - 0.0 - - - - - - -
24/06:00am 10.9 N 10 13 1008.6 - 0.0 - - - - - - -
24/05:30am 10.5 N 10 12 1008.1 - 0.0 - - - - - - -
24/05:00am 11.2 N 9 11 1008.4 - 0.0 - - - - - - -
24/04:30am 11.4 N 10 13 1008.5 - 0.0 - - - - - - -
24/04:00am 11.6 N 9 13 1008.6 - 0.0 - - - - - - -
24/03:30am 11.8 N 8 10 1008.8 - 0.0 - - - - - - -
24/03:00am 12.2 N 8 11 1009.1 - 0.0 - - - - - - -
24/02:30am 12.5 N 8 11 1009.5 - 0.0 - - - - - - -
24/02:00am 12.5 N 8 10 1009.7 - 0.0 - - - - - - -
24/01:30am 12.3 N 9 11 1010.0 - 0.0 - - - - - - -
24/01:00am 12.7 N 8 11 1010.2 - 0.0 - - - - - - -
24/12:30am 13.0 N 9 13 1010.3 - 0.0 - - - - - - -
24/12:00am 12.8 N 9 11 1010.5 - 0.0 - - - - - - -
 
Date/Time
EDT
Temp

°C
Wind Pressure Rain
since 9am
mm
Weather Cloud Vis
km
Sea
Height
m
Swell
Dir
 
Speed
knots
Gust
knots
hPa Trend Height
m
Period
s
Dir
23/11:30pm 13.0 N 7 9 1010.9 - 0.0 - - - - - - -
23/11:00pm 13.2 N 8 11 1011.3 - 0.0 - - - - - - -
23/10:30pm 13.0 NNE 9 11 1011.4 - 0.0 - - - - - - -
23/10:00pm 12.8 NNE 8 10 1011.6 - 0.0 - - - - - - -
23/09:30pm 13.0 NNE 9 11 1011.6 - 0.0 - - - - - - -
23/09:00pm 13.5 NNE 8 10 1011.0 - 0.0 - - - - - - -
23/08:30pm 14.2 NNE 9 11 1011.1 - 0.0 - - - - - - -
23/08:00pm 15.1 NE 9 11 1010.7 - 0.0 - - - - - - -
23/07:30pm 15.4 E 11 14 1010.5 - 0.0 - - - - - - -
23/07:00pm 15.6 E 15 19 1009.7 - 0.0 - - - - - - -
23/06:58pm 15.7 E 15 18 1009.7 - 0.0 - - - - - - -
23/06:30pm 16.5 E 6 8 1009.3 - 0.0 - - - - - - -
23/06:00pm 16.6 SSW 5 8 1008.8 - 0.0 - - - - - - -
23/05:30pm 17.4 SSW 8 11 1008.5 - 0.0 - - - - - - -
23/05:00pm 17.9 SW 11 16 1008.1 - 0.0 - - - - - - -
23/04:30pm 18.1 SSW 9 16 1008.0 - 0.0 - - - - - - -
23/04:00pm 17.4 SW 14 17 1008.0 - 0.0 - - - - - - -
23/03:30pm 18.5 SSW 10 14 1008.2 - 0.0 - - - - - - -
23/03:00pm 18.6 SSW 9 15 1008.4 - 0.0 - - - - - - -
23/02:30pm 17.0 SSW 12 16 1008.4 - 0.0 - - - - - - -
23/02:00pm 16.6 S 10 14 1008.3 - 0.0 - - - - - - -
23/01:30pm 16.1 S 9 15 1008.4 - 0.0 - - - - - - -
23/01:00pm 17.2 SSW 11 16 1008.6 - 0.0 - - - - - - -
23/12:30pm 16.8 S 7 10 1008.6 - 0.0 - - - - - - -
23/12:00pm 17.9 S 8 12 1008.5 - 0.0 - - - - - - -
23/11:30am 17.8 SSW 8 11 1008.4 - 0.0 - - - - - - -
23/11:00am 19.0 W 15 18 1008.4 - 0.0 - - - - - - -
23/10:30am 17.9 W 15 19 1008.1 - 0.0 - - - - - - -

Other Formats:

Comma delimited format used in spreadsheet applications
http://www.bom.gov.au/fwo/IDT60701/IDT60701.95967.axf

JavaScript Object Notation format (JSON) in row-major order
http://www.bom.gov.au/fwo/IDT60701/IDT60701.95967.json